Pointe-Lebel, Canada
Current Conditions -  °F | °C
As of 11:00 AM on Friday 31 Oct 2014 (Local Time) from CYBC Reporting Station
Clear Clear  
Wind Chill: 34°   Ceiling: Unl
Heat Index: 39°   Visibility: 9mi
Dew Point: 27°   Wind: 7mph
Humidity: 61%   Direction: 310°NW
Pressure: 30.06"   Gusts: NA
Location:  49.15°N, 68.2°W
Report Text: CYBC 311500Z AUTO 31006KT 280V010 9SM CLR 04/M03 A3006 RMK SLP181
Loading
Personal Weather Stations






























Interactive Weather Map
Tropical Storm Tracking
New forecast layout! Learn more

10-Day Weather Forecast

Advertisements
Track Severe Weather on mobile